sensor_id;sensor_type;location;lat;lon;timestamp;P1;durP1;ratioP1;P2;durP2;ratioP2
26820;SDS011;37186;51.394;5.454;2022-09-09T00:02:43;154.38;;;147.43;;
26820;SDS011;37186;51.394;5.454;2022-09-09T00:06:24;156.93;;;149.90;;
26820;SDS011;37186;51.394;5.454;2022-09-09T00:09:27;148.52;;;141.93;;
26820;SDS011;37186;51.394;5.454;2022-09-09T00:16:09;146.20;;;139.57;;
26820;SDS011;37186;51.394;5.454;2022-09-09T00:19:30;147.07;;;140.48;;
26820;SDS011;37186;51.394;5.454;2022-09-09T00:22:38;153.85;;;147.02;;
26820;SDS011;37186;51.394;5.454;2022-09-09T00:25:54;149.05;;;142.32;;
26820;SDS011;37186;51.394;5.454;2022-09-09T00:32:14;171.05;;;163.32;;
26820;SDS011;37186;51.394;5.454;2022-09-09T00:38:33;160.85;;;153.57;;
26820;SDS011;37186;51.394;5.454;2022-09-09T00:48:25;149.85;;;143.15;;
26820;SDS011;37186;51.394;5.454;2022-09-09T00:55:05;140.55;;;134.25;;
26820;SDS011;37186;51.394;5.454;2022-09-09T00:58:25;139.85;;;133.65;;
26820;SDS011;37186;51.394;5.454;2022-09-09T01:01:27;138.23;;;131.98;;
26820;SDS011;37186;51.394;5.454;2022-09-09T01:04:34;140.98;;;134.73;;
26820;SDS011;37186;51.394;5.454;2022-09-09T01:07:36;136.88;;;130.75;;
26820;SDS011;37186;51.394;5.454;2022-09-09T01:10:41;133.85;;;127.85;;
26820;SDS011;37186;51.394;5.454;2022-09-09T01:13:49;131.60;;;125.70;;
26820;SDS011;37186;51.394;5.454;2022-09-09T01:17:03;132.43;;;126.43;;
26820;SDS011;37186;51.394;5.454;2022-09-09T01:20:10;133.73;;;127.78;;
26820;SDS011;37186;51.394;5.454;2022-09-09T01:23:25;126.80;;;121.13;;
26820;SDS011;37186;51.394;5.454;2022-09-09T01:26:43;127.38;;;121.70;;
26820;SDS011;37186;51.394;5.454;2022-09-09T01:29:45;124.68;;;119.15;;
26820;SDS011;37186;51.394;5.454;2022-09-09T01:32:48;120.50;;;115.22;;
26820;SDS011;37186;51.394;5.454;2022-09-09T01:35:55;126.05;;;120.50;;
26820;SDS011;37186;51.394;5.454;2022-09-09T01:39:02;118.10;;;112.95;;
26820;SDS011;37186;51.394;5.454;2022-09-09T01:42:03;118.07;;;112.93;;
26820;SDS011;37186;51.394;5.454;2022-09-09T01:45:06;121.75;;;116.40;;
26820;SDS011;37186;51.394;5.454;2022-09-09T01:48:07;116.00;;;110.97;;
26820;SDS011;37186;51.394;5.454;2022-09-09T01:51:08;110.75;;;105.97;;
26820;SDS011;37186;51.394;5.454;2022-09-09T01:54:10;115.00;;;110.03;;
26820;SDS011;37186;51.394;5.454;2022-09-09T01:57:24;105.70;;;101.15;;
26820;SDS011;37186;51.394;5.454;2022-09-09T02:00:28;104.38;;;99.97;;
26820;SDS011;37186;51.394;5.454;2022-09-09T02:03:32;105.35;;;100.88;;
26820;SDS011;37186;51.394;5.454;2022-09-09T02:06:35;105.90;;;101.45;;
26820;SDS011;37186;51.394;5.454;2022-09-09T02:09:38;108.90;;;104.38;;
26820;SDS011;37186;51.394;5.454;2022-09-09T02:12:45;100.53;;;96.32;;
26820;SDS011;37186;51.394;5.454;2022-09-09T02:18:57;94.38;;;90.55;;
26820;SDS011;37186;51.394;5.454;2022-09-09T02:22:06;96.57;;;92.63;;
26820;SDS011;37186;51.394;5.454;2022-09-09T02:25:08;94.25;;;90.38;;
26820;SDS011;37186;51.394;5.454;2022-09-09T02:28:12;94.60;;;90.72;;
26820;SDS011;37186;51.394;5.454;2022-09-09T02:31:15;101.70;;;97.47;;
26820;SDS011;37186;51.394;5.454;2022-09-09T02:34:20;97.05;;;93.03;;
26820;SDS011;37186;51.394;5.454;2022-09-09T02:37:25;96.60;;;92.72;;
26820;SDS011;37186;51.394;5.454;2022-09-09T02:40:31;88.75;;;85.15;;
26820;SDS011;37186;51.394;5.454;2022-09-09T02:43:33;95.75;;;91.85;;
26820;SDS011;37186;51.394;5.454;2022-09-09T02:53:22;98.38;;;94.30;;
26820;SDS011;37186;51.394;5.454;2022-09-09T02:56:26;91.63;;;87.93;;
26820;SDS011;37186;51.394;5.454;2022-09-09T02:59:30;95.07;;;91.15;;
26820;SDS011;37186;51.394;5.454;2022-09-09T03:02:31;92.93;;;89.07;;
26820;SDS011;37186;51.394;5.454;2022-09-09T03:05:32;91.32;;;87.57;;
26820;SDS011;37186;51.394;5.454;2022-09-09T03:08:32;90.30;;;86.63;;
26820;SDS011;37186;51.394;5.454;2022-09-09T03:11:33;87.30;;;83.72;;
26820;SDS011;37186;51.394;5.454;2022-09-09T03:14:33;89.10;;;85.45;;
26820;SDS011;37186;51.394;5.454;2022-09-09T03:17:34;89.10;;;85.43;;
26820;SDS011;37186;51.394;5.454;2022-09-09T03:20:35;89.80;;;86.10;;
26820;SDS011;37186;51.394;5.454;2022-09-09T03:23:35;99.43;;;95.28;;
26820;SDS011;37186;51.394;5.454;2022-09-09T03:26:36;92.53;;;88.68;;
26820;SDS011;37186;51.394;5.454;2022-09-09T03:29:37;94.53;;;90.57;;
26820;SDS011;37186;51.394;5.454;2022-09-09T03:32:38;93.85;;;89.90;;
26820;SDS011;37186;51.394;5.454;2022-09-09T03:35:39;89.40;;;85.68;;
26820;SDS011;37186;51.394;5.454;2022-09-09T03:38:47;89.32;;;85.68;;
26820;SDS011;37186;51.394;5.454;2022-09-09T03:41:47;90.75;;;86.97;;
26820;SDS011;37186;51.394;5.454;2022-09-09T03:44:48;92.78;;;88.88;;
26820;SDS011;37186;51.394;5.454;2022-09-09T03:47:52;88.85;;;85.18;;
26820;SDS011;37186;51.394;5.454;2022-09-09T03:50:53;91.93;;;88.10;;
26820;SDS011;37186;51.394;5.454;2022-09-09T03:53:55;91.78;;;87.93;;
26820;SDS011;37186;51.394;5.454;2022-09-09T03:56:58;86.93;;;83.35;;
26820;SDS011;37186;51.394;5.454;2022-09-09T03:59:58;89.63;;;85.93;;
26820;SDS011;37186;51.394;5.454;2022-09-09T04:03:00;90.38;;;86.63;;
26820;SDS011;37186;51.394;5.454;2022-09-09T04:06:03;93.68;;;89.78;;
26820;SDS011;37186;51.394;5.454;2022-09-09T04:09:04;95.43;;;91.40;;
26820;SDS011;37186;51.394;5.454;2022-09-09T04:12:05;91.32;;;87.53;;
26820;SDS011;37186;51.394;5.454;2022-09-09T04:15:06;86.97;;;83.32;;
26820;SDS011;37186;51.394;5.454;2022-09-09T04:18:08;90.78;;;86.93;;
26820;SDS011;37186;51.394;5.454;2022-09-09T04:21:09;88.57;;;84.90;;
26820;SDS011;37186;51.394;5.454;2022-09-09T04:24:12;92.07;;;88.22;;
26820;SDS011;37186;51.394;5.454;2022-09-09T04:27:12;95.15;;;91.13;;
26820;SDS011;37186;51.394;5.454;2022-09-09T04:30:13;96.80;;;92.75;;
26820;SDS011;37186;51.394;5.454;2022-09-09T04:33:13;89.07;;;85.32;;
26820;SDS011;37186;51.394;5.454;2022-09-09T04:36:14;85.05;;;81.47;;
26820;SDS011;37186;51.394;5.454;2022-09-09T04:39:15;90.88;;;87.10;;
26820;SDS011;37186;51.394;5.454;2022-09-09T04:42:15;88.78;;;85.05;;
26820;SDS011;37186;51.394;5.454;2022-09-09T04:45:17;90.63;;;86.85;;
26820;SDS011;37186;51.394;5.454;2022-09-09T04:48:19;89.75;;;85.97;;
26820;SDS011;37186;51.394;5.454;2022-09-09T04:51:20;87.10;;;83.50;;
26820;SDS011;37186;51.394;5.454;2022-09-09T04:54:22;86.63;;;82.95;;
26820;SDS011;37186;51.394;5.454;2022-09-09T04:57:22;84.20;;;80.65;;
26820;SDS011;37186;51.394;5.454;2022-09-09T05:00:24;87.03;;;83.38;;
26820;SDS011;37186;51.394;5.454;2022-09-09T05:03:24;85.78;;;82.18;;
26820;SDS011;37186;51.394;5.454;2022-09-09T05:06:25;89.18;;;85.45;;
26820;SDS011;37186;51.394;5.454;2022-09-09T05:09:25;90.32;;;86.57;;
26820;SDS011;37186;51.394;5.454;2022-09-09T05:12:26;82.35;;;78.93;;
26820;SDS011;37186;51.394;5.454;2022-09-09T05:15:26;88.05;;;84.38;;
26820;SDS011;37186;51.394;5.454;2022-09-09T05:18:27;87.20;;;83.53;;
26820;SDS011;37186;51.394;5.454;2022-09-09T05:21:27;79.43;;;76.18;;
26820;SDS011;37186;51.394;5.454;2022-09-09T05:24:30;82.97;;;79.57;;
26820;SDS011;37186;51.394;5.454;2022-09-09T05:27:36;83.00;;;79.57;;
26820;SDS011;37186;51.394;5.454;2022-09-09T05:30:37;82.72;;;79.32;;
26820;SDS011;37186;51.394;5.454;2022-09-09T05:33:38;85.95;;;82.35;;
26820;SDS011;37186;51.394;5.454;2022-09-09T05:36:43;86.25;;;82.70;;
26820;SDS011;37186;51.394;5.454;2022-09-09T05:39:44;86.18;;;82.60;;
26820;SDS011;37186;51.394;5.454;2022-09-09T05:42:44;85.47;;;81.95;;
26820;SDS011;37186;51.394;5.454;2022-09-09T05:45:45;85.82;;;82.28;;
26820;SDS011;37186;51.394;5.454;2022-09-09T05:48:47;86.03;;;82.45;;
26820;SDS011;37186;51.394;5.454;2022-09-09T05:51:53;81.78;;;78.38;;
26820;SDS011;37186;51.394;5.454;2022-09-09T05:54:53;90.70;;;86.93;;
26820;SDS011;37186;51.394;5.454;2022-09-09T05:57:55;85.55;;;82.00;;
26820;SDS011;37186;51.394;5.454;2022-09-09T06:01:03;80.47;;;77.13;;
26820;SDS011;37186;51.394;5.454;2022-09-09T06:04:08;78.75;;;75.57;;
26820;SDS011;37186;51.394;5.454;2022-09-09T06:07:08;76.80;;;73.65;;
26820;SDS011;37186;51.394;5.454;2022-09-09T06:10:09;82.05;;;78.63;;
26820;SDS011;37186;51.394;5.454;2022-09-09T06:13:10;79.55;;;76.25;;
26820;SDS011;37186;51.394;5.454;2022-09-09T06:16:16;82.22;;;78.78;;
26820;SDS011;37186;51.394;5.454;2022-09-09T06:19:18;96.15;;;92.15;;
26820;SDS011;37186;51.394;5.454;2022-09-09T06:22:19;94.97;;;90.93;;
26820;SDS011;37186;51.394;5.454;2022-09-09T06:25:20;96.97;;;92.88;;
26820;SDS011;37186;51.394;5.454;2022-09-09T06:28:21;91.32;;;87.53;;
26820;SDS011;37186;51.394;5.454;2022-09-09T06:31:23;98.90;;;94.85;;
26820;SDS011;37186;51.394;5.454;2022-09-09T06:34:25;94.20;;;90.35;;
26820;SDS011;37186;51.394;5.454;2022-09-09T06:37:26;98.82;;;94.68;;
26820;SDS011;37186;51.394;5.454;2022-09-09T06:40:27;92.65;;;88.82;;
26820;SDS011;37186;51.394;5.454;2022-09-09T06:43:28;93.95;;;90.10;;
26820;SDS011;37186;51.394;5.454;2022-09-09T06:46:29;89.55;;;85.88;;
26820;SDS011;37186;51.394;5.454;2022-09-09T06:49:32;88.82;;;85.22;;
26820;SDS011;37186;51.394;5.454;2022-09-09T06:52:32;88.80;;;85.20;;
26820;SDS011;37186;51.394;5.454;2022-09-09T06:55:33;91.40;;;87.70;;
26820;SDS011;37186;51.394;5.454;2022-09-09T06:58:35;93.20;;;89.40;;
26820;SDS011;37186;51.394;5.454;2022-09-09T07:01:36;92.82;;;89.00;;
26820;SDS011;37186;51.394;5.454;2022-09-09T07:04:40;89.93;;;86.22;;
26820;SDS011;37186;51.394;5.454;2022-09-09T07:07:41;92.53;;;88.80;;
26820;SDS011;37186;51.394;5.454;2022-09-09T07:10:41;61.95;;;59.58;;
26820;SDS011;37186;51.394;5.454;2022-09-09T07:13:43;54.33;;;52.25;;
26820;SDS011;37186;51.394;5.454;2022-09-09T07:16:44;58.83;;;56.63;;
26820;SDS011;37186;51.394;5.454;2022-09-09T07:19:46;60.97;;;58.72;;
26820;SDS011;37186;51.394;5.454;2022-09-09T07:22:47;59.67;;;57.45;;
26820;SDS011;37186;51.394;5.454;2022-09-09T07:25:48;64.10;;;61.72;;
26820;SDS011;37186;51.394;5.454;2022-09-09T07:28:48;62.58;;;60.25;;
26820;SDS011;37186;51.394;5.454;2022-09-09T07:31:49;65.10;;;62.70;;
26820;SDS011;37186;51.394;5.454;2022-09-09T07:34:49;66.15;;;63.70;;
26820;SDS011;37186;51.394;5.454;2022-09-09T07:37:50;69.95;;;67.35;;
26820;SDS011;37186;51.394;5.454;2022-09-09T07:40:51;69.95;;;67.35;;
26820;SDS011;37186;51.394;5.454;2022-09-09T07:43:51;66.55;;;64.07;;
26820;SDS011;37186;51.394;5.454;2022-09-09T07:46:53;69.88;;;67.28;;
26820;SDS011;37186;51.394;5.454;2022-09-09T07:49:54;66.85;;;64.38;;
26820;SDS011;37186;51.394;5.454;2022-09-09T07:52:55;70.35;;;67.75;;
26820;SDS011;37186;51.394;5.454;2022-09-09T07:56:01;68.47;;;65.95;;
26820;SDS011;37186;51.394;5.454;2022-09-09T07:59:03;67.53;;;65.03;;
26820;SDS011;37186;51.394;5.454;2022-09-09T08:02:06;68.97;;;66.38;;
26820;SDS011;37186;51.394;5.454;2022-09-09T08:05:06;66.28;;;63.85;;
26820;SDS011;37186;51.394;5.454;2022-09-09T08:08:07;66.97;;;64.47;;
26820;SDS011;37186;51.394;5.454;2022-09-09T08:11:10;64.72;;;62.33;;
26820;SDS011;37186;51.394;5.454;2022-09-09T08:14:12;65.60;;;63.17;;
26820;SDS011;37186;51.394;5.454;2022-09-09T08:17:13;60.30;;;58.10;;
26820;SDS011;37186;51.394;5.454;2022-09-09T08:20:14;62.53;;;60.22;;
26820;SDS011;37186;51.394;5.454;2022-09-09T08:23:14;66.90;;;64.40;;
26820;SDS011;37186;51.394;5.454;2022-09-09T08:26:15;63.65;;;61.28;;
26820;SDS011;37186;51.394;5.454;2022-09-09T08:29:22;61.88;;;59.60;;
26820;SDS011;37186;51.394;5.454;2022-09-09T08:32:23;63.22;;;60.88;;
26820;SDS011;37186;51.394;5.454;2022-09-09T08:35:23;65.47;;;63.03;;
26820;SDS011;37186;51.394;5.454;2022-09-09T08:38:24;62.85;;;60.53;;
26820;SDS011;37186;51.394;5.454;2022-09-09T08:45:02;58.33;;;56.17;;
26820;SDS011;37186;51.394;5.454;2022-09-09T08:48:22;57.28;;;55.17;;
26820;SDS011;37186;51.394;5.454;2022-09-09T08:51:41;57.72;;;55.58;;
26820;SDS011;37186;51.394;5.454;2022-09-09T08:54:42;64.63;;;62.20;;
26820;SDS011;37186;51.394;5.454;2022-09-09T08:57:42;59.95;;;57.72;;
26820;SDS011;37186;51.394;5.454;2022-09-09T09:07:17;60.45;;;58.17;;
26820;SDS011;37186;51.394;5.454;2022-09-09T09:10:39;63.28;;;60.88;;
26820;SDS011;37186;51.394;5.454;2022-09-09T09:13:50;65.30;;;62.83;;
26820;SDS011;37186;51.394;5.454;2022-09-09T09:17:06;64.22;;;61.83;;
26820;SDS011;37186;51.394;5.454;2022-09-09T09:20:16;63.42;;;61.05;;
26820;SDS011;37186;51.394;5.454;2022-09-09T09:23:24;68.35;;;65.75;;
26820;SDS011;37186;51.394;5.454;2022-09-09T09:26:30;70.32;;;67.63;;
26820;SDS011;37186;51.394;5.454;2022-09-09T09:29:33;59.90;;;57.65;;
26820;SDS011;37186;51.394;5.454;2022-09-09T09:32:35;68.25;;;65.68;;
26820;SDS011;37186;51.394;5.454;2022-09-09T09:35:36;67.68;;;65.10;;
26820;SDS011;37186;51.394;5.454;2022-09-09T09:38:37;66.65;;;64.15;;
26820;SDS011;37186;51.394;5.454;2022-09-09T09:41:41;65.13;;;62.65;;
26820;SDS011;37186;51.394;5.454;2022-09-09T09:44:45;67.05;;;64.53;;
26820;SDS011;37186;51.394;5.454;2022-09-09T09:47:46;73.97;;;71.10;;
26820;SDS011;37186;51.394;5.454;2022-09-09T09:51:00;74.95;;;72.05;;
26820;SDS011;37186;51.394;5.454;2022-09-09T09:54:14;67.63;;;65.05;;
26820;SDS011;37186;51.394;5.454;2022-09-09T09:57:28;69.28;;;66.65;;
26820;SDS011;37186;51.394;5.454;2022-09-09T10:00:30;74.70;;;71.80;;
26820;SDS011;37186;51.394;5.454;2022-09-09T10:03:33;72.35;;;69.55;;
26820;SDS011;37186;51.394;5.454;2022-09-09T10:06:37;74.45;;;71.65;;
26820;SDS011;37186;51.394;5.454;2022-09-09T10:09:39;72.40;;;69.63;;
26820;SDS011;37186;51.394;5.454;2022-09-09T10:12:53;76.43;;;73.50;;
26820;SDS011;37186;51.394;5.454;2022-09-09T10:16:28;74.35;;;71.47;;
26820;SDS011;37186;51.394;5.454;2022-09-09T10:19:59;68.78;;;66.15;;
26820;SDS011;37186;51.394;5.454;2022-09-09T10:33:22;74.95;;;72.10;;
26820;SDS011;37186;51.394;5.454;2022-09-09T10:36:27;72.15;;;69.38;;
26820;SDS011;37186;51.394;5.454;2022-09-09T10:42:37;71.57;;;68.85;;
26820;SDS011;37186;51.394;5.454;2022-09-09T10:45:48;62.78;;;60.40;;
26820;SDS011;37186;51.394;5.454;2022-09-09T10:55:55;59.33;;;57.10;;
26820;SDS011;37186;51.394;5.454;2022-09-09T10:59:10;61.45;;;59.15;;
26820;SDS011;37186;51.394;5.454;2022-09-09T11:02:16;60.38;;;58.10;;
26820;SDS011;37186;51.394;5.454;2022-09-09T11:08:30;53.40;;;51.40;;
26820;SDS011;37186;51.394;5.454;2022-09-09T11:11:36;56.47;;;54.38;;
26820;SDS011;37186;51.394;5.454;2022-09-09T11:14:43;43.85;;;42.25;;
26820;SDS011;37186;51.394;5.454;2022-09-09T11:17:58;43.33;;;41.78;;
26820;SDS011;37186;51.394;5.454;2022-09-09T11:21:04;43.40;;;41.85;;
26820;SDS011;37186;51.394;5.454;2022-09-09T11:25:14;43.42;;;41.88;;
26820;SDS011;37186;51.394;5.454;2022-09-09T11:27:56;43.83;;;42.25;;
26820;SDS011;37186;51.394;5.454;2022-09-09T11:34:17;45.90;;;44.25;;
26820;SDS011;37186;51.394;5.454;2022-09-09T11:37:31;49.17;;;47.40;;
26820;SDS011;37186;51.394;5.454;2022-09-09T11:41:01;53.00;;;51.05;;
26820;SDS011;37186;51.394;5.454;2022-09-09T11:44:17;53.03;;;51.05;;
26820;SDS011;37186;51.394;5.454;2022-09-09T11:47:27;57.63;;;55.45;;
26820;SDS011;37186;51.394;5.454;2022-09-09T11:50:31;58.03;;;55.85;;
26820;SDS011;37186;51.394;5.454;2022-09-09T11:53:34;55.25;;;53.17;;
26820;SDS011;37186;51.394;5.454;2022-09-09T11:56:48;54.90;;;52.85;;
26820;SDS011;37186;51.394;5.454;2022-09-09T11:59:52;58.40;;;56.20;;
26820;SDS011;37186;51.394;5.454;2022-09-09T12:02:53;56.35;;;54.28;;
26820;SDS011;37186;51.394;5.454;2022-09-09T12:05:53;52.28;;;50.38;;
26820;SDS011;37186;51.394;5.454;2022-09-09T12:08:57;55.53;;;53.47;;
26820;SDS011;37186;51.394;5.454;2022-09-09T12:12:21;53.40;;;51.45;;
26820;SDS011;37186;51.394;5.454;2022-09-09T12:15:27;54.38;;;52.38;;
26820;SDS011;37186;51.394;5.454;2022-09-09T12:18:33;56.78;;;54.67;;
26820;SDS011;37186;51.394;5.454;2022-09-09T12:21:39;56.03;;;53.95;;
26820;SDS011;37186;51.394;5.454;2022-09-09T12:28:20;58.25;;;56.13;;
26820;SDS011;37186;51.394;5.454;2022-09-09T12:31:27;55.05;;;53.03;;
26820;SDS011;37186;51.394;5.454;2022-09-09T12:34:58;55.83;;;53.78;;
26820;SDS011;37186;51.394;5.454;2022-09-09T12:38:13;61.13;;;58.85;;
26820;SDS011;37186;51.394;5.454;2022-09-09T12:41:23;56.22;;;54.17;;
26820;SDS011;37186;51.394;5.454;2022-09-09T12:44:25;61.60;;;59.33;;
26820;SDS011;37186;51.394;5.454;2022-09-09T12:50:44;63.20;;;60.85;;
26820;SDS011;37186;51.394;5.454;2022-09-09T12:53:49;63.40;;;61.05;;
26820;SDS011;37186;51.394;5.454;2022-09-09T12:56:51;63.53;;;61.17;;
26820;SDS011;37186;51.394;5.454;2022-09-09T12:59:51;64.00;;;61.63;;
26820;SDS011;37186;51.394;5.454;2022-09-09T13:02:57;67.25;;;64.78;;
26820;SDS011;37186;51.394;5.454;2022-09-09T13:06:11;64.18;;;61.80;;
26820;SDS011;37186;51.394;5.454;2022-09-09T13:09:14;64.25;;;61.88;;
26820;SDS011;37186;51.394;5.454;2022-09-09T13:12:19;62.83;;;60.53;;
26820;SDS011;37186;51.394;5.454;2022-09-09T13:15:23;66.82;;;64.32;;
26820;SDS011;37186;51.394;5.454;2022-09-09T13:18:28;67.50;;;65.00;;
26820;SDS011;37186;51.394;5.454;2022-09-09T13:21:39;62.05;;;59.75;;
26820;SDS011;37186;51.394;5.454;2022-09-09T13:24:40;65.55;;;63.15;;
26820;SDS011;37186;51.394;5.454;2022-09-09T13:27:50;68.07;;;65.53;;
26820;SDS011;37186;51.394;5.454;2022-09-09T13:30:56;74.18;;;71.38;;
26820;SDS011;37186;51.394;5.454;2022-09-09T13:34:27;73.25;;;70.53;;
26820;SDS011;37186;51.394;5.454;2022-09-09T13:37:35;78.20;;;75.25;;
26820;SDS011;37186;51.394;5.454;2022-09-09T13:40:37;73.07;;;70.35;;
26820;SDS011;37186;51.394;5.454;2022-09-09T13:43:44;78.05;;;75.13;;
26820;SDS011;37186;51.394;5.454;2022-09-09T13:46:47;75.65;;;72.82;;
26820;SDS011;37186;51.394;5.454;2022-09-09T13:49:47;77.00;;;74.13;;
26820;SDS011;37186;51.394;5.454;2022-09-09T13:52:49;76.18;;;73.30;;
26820;SDS011;37186;51.394;5.454;2022-09-09T13:55:54;76.53;;;73.63;;
26820;SDS011;37186;51.394;5.454;2022-09-09T13:58:54;75.07;;;72.25;;
26820;SDS011;37186;51.394;5.454;2022-09-09T14:01:55;80.35;;;77.32;;
26820;SDS011;37186;51.394;5.454;2022-09-09T14:04:56;84.50;;;81.25;;
26820;SDS011;37186;51.394;5.454;2022-09-09T14:07:57;90.95;;;87.47;;
26820;SDS011;37186;51.394;5.454;2022-09-09T14:10:58;97.70;;;93.93;;
26820;SDS011;37186;51.394;5.454;2022-09-09T14:13:59;104.28;;;100.18;;
26820;SDS011;37186;51.394;5.454;2022-09-09T14:17:00;103.70;;;99.57;;
26820;SDS011;37186;51.394;5.454;2022-09-09T14:20:04;106.13;;;101.85;;
26820;SDS011;37186;51.394;5.454;2022-09-09T14:23:10;105.97;;;101.70;;
26820;SDS011;37186;51.394;5.454;2022-09-09T14:26:11;109.05;;;104.65;;
26820;SDS011;37186;51.394;5.454;2022-09-09T14:29:13;110.07;;;105.68;;
26820;SDS011;37186;51.394;5.454;2022-09-09T14:32:13;109.82;;;105.38;;
26820;SDS011;37186;51.394;5.454;2022-09-09T14:35:14;112.00;;;107.47;;
26820;SDS011;37186;51.394;5.454;2022-09-09T14:38:14;115.57;;;110.85;;
26820;SDS011;37186;51.394;5.454;2022-09-09T14:41:16;118.10;;;113.22;;
26820;SDS011;37186;51.394;5.454;2022-09-09T14:44:17;117.32;;;112.53;;
26820;SDS011;37186;51.394;5.454;2022-09-09T14:47:18;116.85;;;112.03;;
26820;SDS011;37186;51.394;5.454;2022-09-09T14:50:19;124.90;;;119.68;;
26820;SDS011;37186;51.394;5.454;2022-09-09T14:53:20;117.25;;;112.40;;
26820;SDS011;37186;51.394;5.454;2022-09-09T14:56:22;132.02;;;126.50;;
26820;SDS011;37186;51.394;5.454;2022-09-09T14:59:24;126.68;;;121.43;;
26820;SDS011;37186;51.394;5.454;2022-09-09T15:02:25;127.00;;;121.82;;
26820;SDS011;37186;51.394;5.454;2022-09-09T15:05:25;124.78;;;119.60;;
26820;SDS011;37186;51.394;5.454;2022-09-09T15:08:27;124.07;;;118.95;;
26820;SDS011;37186;51.394;5.454;2022-09-09T15:11:33;126.72;;;121.50;;
26820;SDS011;37186;51.394;5.454;2022-09-09T15:14:37;121.18;;;116.20;;
26820;SDS011;37186;51.394;5.454;2022-09-09T15:17:38;122.15;;;117.15;;
26820;SDS011;37186;51.394;5.454;2022-09-09T15:20:38;121.93;;;116.95;;
26820;SDS011;37186;51.394;5.454;2022-09-09T15:23:44;130.43;;;125.05;;
26820;SDS011;37186;51.394;5.454;2022-09-09T15:26:45;122.65;;;117.65;;
26820;SDS011;37186;51.394;5.454;2022-09-09T15:29:46;124.38;;;119.32;;
26820;SDS011;37186;51.394;5.454;2022-09-09T15:32:47;125.25;;;120.18;;
26820;SDS011;37186;51.394;5.454;2022-09-09T15:35:47;126.78;;;121.57;;
26820;SDS011;37186;51.394;5.454;2022-09-09T15:38:49;117.72;;;113.03;;
26820;SDS011;37186;51.394;5.454;2022-09-09T15:41:50;117.97;;;113.25;;
26820;SDS011;37186;51.394;5.454;2022-09-09T15:44:51;116.72;;;112.07;;
26820;SDS011;37186;51.394;5.454;2022-09-09T15:47:51;118.72;;;113.97;;
26820;SDS011;37186;51.394;5.454;2022-09-09T15:51:02;120.72;;;115.88;;
26820;SDS011;37186;51.394;5.454;2022-09-09T15:54:04;122.45;;;117.53;;
26820;SDS011;37186;51.394;5.454;2022-09-09T15:57:05;125.80;;;120.70;;
26820;SDS011;37186;51.394;5.454;2022-09-09T16:00:08;123.40;;;118.45;;
26820;SDS011;37186;51.394;5.454;2022-09-09T16:03:12;123.07;;;118.15;;
26820;SDS011;37186;51.394;5.454;2022-09-09T16:06:13;125.28;;;120.25;;
26820;SDS011;37186;51.394;5.454;2022-09-09T16:09:14;122.38;;;117.45;;
26820;SDS011;37186;51.394;5.454;2022-09-09T16:12:14;116.32;;;111.63;;
26820;SDS011;37186;51.394;5.454;2022-09-09T16:15:16;118.97;;;114.15;;
26820;SDS011;37186;51.394;5.454;2022-09-09T16:18:16;124.43;;;119.38;;
26820;SDS011;37186;51.394;5.454;2022-09-09T16:24:29;116.30;;;111.60;;
26820;SDS011;37186;51.394;5.454;2022-09-09T16:27:29;121.05;;;116.15;;
26820;SDS011;37186;51.394;5.454;2022-09-09T16:30:30;123.00;;;118.03;;
26820;SDS011;37186;51.394;5.454;2022-09-09T16:33:30;118.40;;;113.63;;
26820;SDS011;37186;51.394;5.454;2022-09-09T16:36:32;119.30;;;114.53;;
26820;SDS011;37186;51.394;5.454;2022-09-09T16:39:34;119.00;;;114.30;;
26820;SDS011;37186;51.394;5.454;2022-09-09T16:42:34;103.13;;;98.97;;
26820;SDS011;37186;51.394;5.454;2022-09-09T16:45:40;95.85;;;92.00;;
26820;SDS011;37186;51.394;5.454;2022-09-09T16:48:42;96.32;;;92.35;;
26820;SDS011;37186;51.394;5.454;2022-09-09T16:51:47;100.43;;;96.38;;
26820;SDS011;37186;51.394;5.454;2022-09-09T16:54:53;97.72;;;93.75;;
26820;SDS011;37186;51.394;5.454;2022-09-09T16:57:53;88.00;;;84.47;;
26820;SDS011;37186;51.394;5.454;2022-09-09T17:00:57;92.13;;;88.50;;
26820;SDS011;37186;51.394;5.454;2022-09-09T17:03:59;87.10;;;83.75;;
26820;SDS011;37186;51.394;5.454;2022-09-09T17:07:01;81.35;;;78.28;;
26820;SDS011;37186;51.394;5.454;2022-09-09T17:10:02;79.65;;;76.65;;
26820;SDS011;37186;51.394;5.454;2022-09-09T17:13:02;79.68;;;76.63;;
26820;SDS011;37186;51.394;5.454;2022-09-09T17:16:03;82.63;;;79.45;;
26820;SDS011;37186;51.394;5.454;2022-09-09T17:19:04;82.35;;;79.15;;
26820;SDS011;37186;51.394;5.454;2022-09-09T17:22:06;74.28;;;71.45;;
26820;SDS011;37186;51.394;5.454;2022-09-09T17:25:07;67.63;;;65.05;;
26820;SDS011;37186;51.394;5.454;2022-09-09T17:28:07;66.65;;;64.13;;
26820;SDS011;37186;51.394;5.454;2022-09-09T17:31:09;63.33;;;60.92;;
26820;SDS011;37186;51.394;5.454;2022-09-09T17:34:11;63.55;;;61.08;;
26820;SDS011;37186;51.394;5.454;2022-09-09T17:37:11;58.00;;;55.78;;
26820;SDS011;37186;51.394;5.454;2022-09-09T17:40:13;64.53;;;62.03;;
26820;SDS011;37186;51.394;5.454;2022-09-09T17:43:13;67.68;;;65.03;;
26820;SDS011;37186;51.394;5.454;2022-09-09T17:46:18;70.95;;;68.15;;
26820;SDS011;37186;51.394;5.454;2022-09-09T17:49:21;71.45;;;68.65;;
26820;SDS011;37186;51.394;5.454;2022-09-09T17:52:21;74.20;;;71.32;;
26820;SDS011;37186;51.394;5.454;2022-09-09T17:55:22;75.47;;;72.53;;
26820;SDS011;37186;51.394;5.454;2022-09-09T17:58:23;77.22;;;74.20;;
26820;SDS011;37186;51.394;5.454;2022-09-09T18:01:25;76.15;;;73.20;;
26820;SDS011;37186;51.394;5.454;2022-09-09T18:04:27;74.32;;;71.45;;
26820;SDS011;37186;51.394;5.454;2022-09-09T18:07:28;76.07;;;73.15;;
26820;SDS011;37186;51.394;5.454;2022-09-09T18:10:29;72.65;;;69.88;;
26820;SDS011;37186;51.394;5.454;2022-09-09T18:13:30;74.80;;;71.93;;
26820;SDS011;37186;51.394;5.454;2022-09-09T18:16:31;73.43;;;70.60;;
26820;SDS011;37186;51.394;5.454;2022-09-09T18:19:35;70.63;;;67.93;;
26820;SDS011;37186;51.394;5.454;2022-09-09T18:22:36;67.32;;;64.78;;
26820;SDS011;37186;51.394;5.454;2022-09-09T18:25:37;61.35;;;59.08;;
26820;SDS011;37186;51.394;5.454;2022-09-09T18:28:39;63.65;;;61.25;;
26820;SDS011;37186;51.394;5.454;2022-09-09T18:31:41;60.10;;;57.85;;
26820;SDS011;37186;51.394;5.454;2022-09-09T18:34:42;58.83;;;56.65;;
26820;SDS011;37186;51.394;5.454;2022-09-09T18:37:45;58.83;;;56.65;;
26820;SDS011;37186;51.394;5.454;2022-09-09T18:40:46;57.08;;;54.97;;
26820;SDS011;37186;51.394;5.454;2022-09-09T18:43:50;58.33;;;56.17;;
26820;SDS011;37186;51.394;5.454;2022-09-09T18:46:53;58.53;;;56.38;;
26820;SDS011;37186;51.394;5.454;2022-09-09T18:49:54;61.28;;;59.00;;
26820;SDS011;37186;51.394;5.454;2022-09-09T18:52:55;60.13;;;57.88;;
26820;SDS011;37186;51.394;5.454;2022-09-09T18:56:02;62.60;;;60.30;;
26820;SDS011;37186;51.394;5.454;2022-09-09T18:59:06;62.50;;;60.20;;
26820;SDS011;37186;51.394;5.454;2022-09-09T19:02:08;62.30;;;60.03;;
26820;SDS011;37186;51.394;5.454;2022-09-09T19:05:11;59.33;;;57.17;;
26820;SDS011;37186;51.394;5.454;2022-09-09T19:08:11;64.85;;;62.47;;